Aviation Digital Data Service (ADDS)

Output produced by METARs form (1100 UTC 19 January 2019)
found at http://www.aviationweather.gov/metar/data/
 
SVMI 191000Z 00000KT 9999 FEW016 25/23 Q1016
SVMG 191100Z /////KT 9999 27/25 Q1013 NOSIG